createdAt,value
2022-08-21T00:01:42.513Z,100625.78
2022-08-21T00:04:10.437Z,100620.53
2022-08-21T00:06:38.808Z,100616.31
2022-08-21T00:09:07.441Z,100622.66
2022-08-21T00:11:36.188Z,100614.09
2022-08-21T00:14:05.747Z,100620.47
2022-08-21T00:16:33.431Z,100621.75
2022-08-21T00:19:02.886Z,100616.50
2022-08-21T00:21:31.010Z,100613.34
2022-08-21T00:23:58.659Z,100607.47
2022-08-21T00:26:26.317Z,100606.03
2022-08-21T00:28:54.251Z,100610.28
2022-08-21T00:31:23.394Z,100605.72
2022-08-21T00:33:51.006Z,100603.19
2022-08-21T00:36:18.625Z,100601.66
2022-08-21T00:38:46.699Z,100600.13
2022-08-21T00:41:36.603Z,100597.34
2022-08-21T00:44:02.161Z,100603.94
2022-08-21T00:46:30.228Z,100602.28
2022-08-21T00:48:59.048Z,100596.75
2022-08-21T00:51:41.076Z,100589.09
2022-08-21T00:54:11.627Z,100595.06
2022-08-21T00:56:49.809Z,100598.91
2022-08-21T00:59:19.407Z,100598.28
2022-08-21T01:01:47.352Z,100596.00
2022-08-21T01:04:14.989Z,100589.84
2022-08-21T01:06:42.571Z,100589.84
2022-08-21T01:09:10.192Z,100584.97
2022-08-21T01:11:37.799Z,100587.75
2022-08-21T01:14:05.486Z,100589.41
2022-08-21T01:16:33.141Z,100586.03
2022-08-21T01:19:00.794Z,100588.19
2022-08-21T01:21:29.186Z,100583.38
2022-08-21T01:23:58.112Z,100589.91
2022-08-21T01:26:33.893Z,100581.91
2022-08-21T01:29:13.364Z,100584.03
2022-08-21T01:31:41.099Z,100577.91
2022-08-21T01:34:09.011Z,100573.69
2022-08-21T01:36:37.491Z,100577.75
2022-08-21T01:39:05.432Z,100574.63
2022-08-21T01:41:33.791Z,100566.59
2022-08-21T01:44:01.415Z,100567.69
2022-08-21T01:46:29.764Z,100571.72
2022-08-21T01:48:57.388Z,100566.28
2022-08-21T01:51:25.576Z,100564.38
2022-08-21T01:53:53.228Z,100567.59
2022-08-21T01:56:21.081Z,100575.84
2022-08-21T01:58:48.950Z,100582.22
2022-08-21T02:01:16.822Z,100581.00
2022-08-21T02:03:44.766Z,100583.75
2022-08-21T02:06:14.981Z,100590.94
2022-08-21T02:08:42.721Z,100583.13
2022-08-21T02:11:10.454Z,100589.72
2022-08-21T02:13:38.450Z,100588.00
2022-08-21T02:16:06.925Z,100593.78
2022-08-21T02:18:34.777Z,100585.72
2022-08-21T02:21:02.679Z,100594.38
2022-08-21T02:23:30.552Z,100590.56
2022-08-21T02:25:59.338Z,100596.69
2022-08-21T02:28:27.663Z,100598.13
2022-08-21T02:30:55.704Z,100598.13
2022-08-21T02:33:24.059Z,100604.50
2022-08-21T02:35:53.024Z,100596.22
2022-08-21T02:38:23.448Z,100604.50
2022-08-21T02:40:51.779Z,100599.59
2022-08-21T02:43:20.514Z,100607.41
2022-08-21T02:45:48.976Z,100603.34
2022-08-21T02:48:19.145Z,100610.53
2022-08-21T02:51:08.242Z,100605.63
2022-08-21T02:53:36.079Z,100607.31
2022-08-21T02:56:05.787Z,100617.88
2022-08-21T02:58:35.788Z,100620.78
2022-08-21T03:01:04.132Z,100613.13
2022-08-21T03:03:31.949Z,100610.09
2022-08-21T03:05:59.556Z,100607.50
2022-08-21T03:08:27.641Z,100606.41
2022-08-21T03:10:55.726Z,100613.16
2022-08-21T03:13:24.709Z,100620.97
2022-08-21T03:15:52.246Z,100623.03
2022-08-21T03:18:21.082Z,100615.34
2022-08-21T03:20:48.789Z,100632.91
2022-08-21T03:23:18.489Z,100644.91
2022-08-21T03:25:49.556Z,100645.09
2022-08-21T03:28:23.079Z,100650.69
2022-08-21T03:30:52.113Z,100652.50
2022-08-21T03:33:20.740Z,100645.66
2022-08-21T03:35:57.437Z,100655.03
2022-08-21T03:38:26.796Z,100654.09
2022-08-21T03:40:54.731Z,100660.13
2022-08-21T03:43:22.486Z,100655.25
2022-08-21T03:45:50.101Z,100654.47
2022-08-21T03:48:20.655Z,100657.44
2022-08-21T03:50:50.449Z,100659.00
2022-08-21T03:53:18.255Z,100665.66
2022-08-21T03:55:47.640Z,100663.91
2022-08-21T03:58:17.558Z,100664.53
2022-08-21T04:00:49.684Z,100668.47
2022-08-21T04:03:17.669Z,100662.78
2022-08-21T04:05:46.991Z,100656.31
2022-08-21T04:08:15.321Z,100669.47
2022-08-21T04:10:43.536Z,100674.81
2022-08-21T04:13:12.338Z,100675.56
2022-08-21T04:15:40.321Z,100674.41
2022-08-21T04:18:10.005Z,100675.91
2022-08-21T04:20:37.721Z,100677.06
2022-08-21T04:23:05.276Z,100670.13
2022-08-21T04:25:34.895Z,100681.56
2022-08-21T04:28:03.205Z,100683.78
2022-08-21T04:30:31.694Z,100692.97
2022-08-21T04:32:59.502Z,100690.03
2022-08-21T04:35:28.315Z,100678.38
2022-08-21T04:37:56.028Z,100681.31
2022-08-21T04:40:25.862Z,100682.16
2022-08-21T04:42:56.204Z,100673.84
2022-08-21T04:45:35.364Z,100684.13
2022-08-21T04:48:04.749Z,100672.50
2022-08-21T04:50:44.159Z,100667.22
2022-08-21T04:53:14.465Z,100674.28
2022-08-21T04:55:43.126Z,100666.19
2022-08-21T04:58:11.651Z,100666.13
2022-08-21T05:00:39.936Z,100666.66
2022-08-21T05:03:09.199Z,100669.69
2022-08-21T05:05:37.664Z,100665.31
2022-08-21T05:08:06.212Z,100666.16
2022-08-21T05:10:33.913Z,100661.59
2022-08-21T05:13:06.629Z,100661.34
2022-08-21T05:15:34.319Z,100666.44
2022-08-21T05:18:01.916Z,100665.88
2022-08-21T05:20:30.159Z,100649.69
2022-08-21T05:22:57.991Z,100649.69
2022-08-21T05:25:26.247Z,100640.72
2022-08-21T05:27:58.075Z,100654.16
2022-08-21T05:30:28.642Z,100646.63
2022-08-21T05:33:00.325Z,100648.03
2022-08-21T05:35:28.781Z,100644.59
2022-08-21T05:37:56.713Z,100653.94
2022-08-21T05:40:24.888Z,100650.06
2022-08-21T05:42:54.900Z,100644.72
2022-08-21T05:45:42.694Z,100645.81
2022-08-21T05:48:13.842Z,100645.13
2022-08-21T05:50:42.181Z,100638.91
2022-08-21T05:53:10.881Z,100638.88
2022-08-21T05:55:44.201Z,100643.03
2022-08-21T05:58:14.224Z,100628.44
2022-08-21T06:00:43.019Z,100626.75
2022-08-21T06:03:18.841Z,100631.75
2022-08-21T06:05:46.801Z,100630.88
2022-08-21T06:08:15.808Z,100637.97
2022-08-21T06:10:43.653Z,100633.44
2022-08-21T06:13:11.519Z,100637.19
2022-08-21T06:15:39.965Z,100638.34
2022-08-21T06:18:07.758Z,100641.97
2022-08-21T06:20:35.454Z,100641.13
2022-08-21T06:23:03.089Z,100646.00
2022-08-21T06:25:30.889Z,100643.34
2022-08-21T06:28:06.389Z,100649.03
2022-08-21T06:30:34.117Z,100641.78
2022-08-21T06:33:02.666Z,100640.00
2022-08-21T06:35:30.656Z,100645.00
2022-08-21T06:37:58.647Z,100633.28
2022-08-21T06:40:27.727Z,100639.97
2022-08-21T06:42:58.722Z,100638.25
2022-08-21T06:45:28.342Z,100629.34
2022-08-21T06:48:00.565Z,100627.19
2022-08-21T06:50:28.469Z,100632.31
2022-08-21T06:53:09.348Z,100625.06
2022-08-21T06:55:37.309Z,100631.16
2022-08-21T06:58:08.495Z,100615.00
2022-08-21T07:00:36.775Z,100619.72
2022-08-21T07:03:05.411Z,100608.06
2022-08-21T07:05:34.398Z,100617.59
2022-08-21T07:08:05.383Z,100618.16
2022-08-21T07:10:36.780Z,100620.16
2022-08-21T07:13:06.606Z,100620.38
2022-08-21T07:15:36.507Z,100617.63
2022-08-21T07:18:04.303Z,100617.06
2022-08-21T07:20:32.717Z,100609.25
2022-08-21T07:23:02.588Z,100616.53
2022-08-21T07:25:30.752Z,100620.69
2022-08-21T07:27:58.467Z,100621.53
2022-08-21T07:30:26.193Z,100625.44
2022-08-21T07:32:54.761Z,100618.44
2022-08-21T07:35:22.641Z,100630.69
2022-08-21T07:37:53.828Z,100626.81
2022-08-21T07:40:21.845Z,100618.13
2022-08-21T07:42:55.510Z,100615.59
2022-08-21T07:45:25.578Z,100617.31
2022-08-21T07:47:57.283Z,100620.66
2022-08-21T07:50:28.381Z,100612.53
2022-08-21T07:52:57.494Z,100617.00
2022-08-21T07:55:25.329Z,100625.66
2022-08-21T07:57:53.392Z,100625.06
2022-08-21T08:00:25.565Z,100620.84
2022-08-21T08:02:55.935Z,100617.72
2022-08-21T08:05:26.200Z,100609.22
2022-08-21T08:07:54.064Z,100616.50
2022-08-21T08:10:22.133Z,100610.66
2022-08-21T08:12:52.529Z,100612.34
2022-08-21T08:15:22.576Z,100600.06
2022-08-21T08:17:50.790Z,100590.69
2022-08-21T08:20:19.720Z,100601.06
2022-08-21T08:22:50.004Z,100588.69
2022-08-21T08:25:18.383Z,100591.41
2022-08-21T08:27:47.499Z,100595.84
2022-08-21T08:30:16.844Z,100591.69
2022-08-21T08:32:45.464Z,100591.56
2022-08-21T08:35:13.469Z,100593.91
2022-08-21T08:37:44.042Z,100600.25
2022-08-21T08:40:20.219Z,100597.75
2022-08-21T08:42:48.749Z,100603.88
2022-08-21T08:45:23.920Z,100607.03
2022-08-21T08:48:03.888Z,100595.88
2022-08-21T08:50:40.763Z,100606.38
2022-08-21T08:53:16.321Z,100607.88
2022-08-21T08:55:45.525Z,100599.72
2022-08-21T08:58:31.296Z,100606.88
2022-08-21T09:01:00.598Z,100603.22
2022-08-21T09:03:28.681Z,100601.03
2022-08-21T09:06:18.556Z,100590.19
2022-08-21T09:09:13.518Z,100588.44
2022-08-21T09:12:19.052Z,100604.88
2022-08-21T09:15:12.388Z,100609.34
2022-08-21T09:18:15.386Z,100596.16
2022-08-21T09:20:46.371Z,100605.88
2022-08-21T09:23:26.743Z,100605.88
2022-08-21T09:26:21.091Z,100607.59
2022-08-21T09:28:54.536Z,100608.50
2022-08-21T09:31:34.014Z,100620.56
2022-08-21T09:34:03.482Z,100625.69
2022-08-21T09:36:49.481Z,100623.13
2022-08-21T09:39:40.308Z,100616.72
2022-08-21T09:42:11.406Z,100621.47
2022-08-21T09:44:44.523Z,100613.22
2022-08-21T09:47:15.755Z,100623.16
2022-08-21T09:49:44.071Z,100603.44
2022-08-21T09:52:23.469Z,100609.88
2022-08-21T09:54:54.064Z,100616.31
2022-08-21T09:57:39.654Z,100610.44
2022-08-21T10:00:17.896Z,100609.34
2022-08-21T10:02:46.235Z,100601.53
2022-08-21T10:05:24.651Z,100604.28
2022-08-21T10:07:52.855Z,100597.72
2022-08-21T10:10:27.676Z,100588.59
2022-08-21T10:12:55.791Z,100580.69
2022-08-21T10:15:57.697Z,100584.66
2022-08-21T10:18:31.850Z,100569.38
2022-08-21T10:21:17.926Z,100569.91
2022-08-21T10:24:30.540Z,100565.34
2022-08-21T10:27:17.188Z,100565.41
2022-08-21T10:29:54.573Z,100560.75
2022-08-21T10:32:25.930Z,100548.59
2022-08-21T10:35:12.092Z,100555.81
2022-08-21T10:38:39.386Z,100553.41
2022-08-21T10:41:23.969Z,100538.78
2022-08-21T10:44:25.470Z,100552.31
2022-08-21T10:47:05.904Z,100552.75
2022-08-21T10:49:41.203Z,100556.44
2022-08-21T10:52:38.462Z,100559.75
2022-08-21T10:55:18.392Z,100552.94
2022-08-21T10:57:49.466Z,100551.59
2022-08-21T11:00:21.196Z,100561.94
2022-08-21T11:03:09.997Z,100561.88
2022-08-21T11:05:51.313Z,100566.50
2022-08-21T11:08:20.812Z,100564.09
2022-08-21T11:11:08.583Z,100570.41
2022-08-21T11:13:55.404Z,100563.13
2022-08-21T11:16:34.963Z,100559.75
2022-08-21T11:19:20.197Z,100550.41
2022-08-21T11:22:03.283Z,100559.47
2022-08-21T11:25:04.969Z,100564.09
2022-08-21T11:27:45.056Z,100557.84
2022-08-21T11:30:13.272Z,100567.91
2022-08-21T11:32:47.119Z,100563.13
2022-08-21T11:35:21.141Z,100573.78
2022-08-21T11:38:02.057Z,100571.63
2022-08-21T11:40:52.653Z,100561.91
2022-08-21T11:43:23.051Z,100561.88
2022-08-21T11:45:55.653Z,100573.94
2022-08-21T11:48:42.441Z,100576.22
2022-08-21T11:51:17.394Z,100556.47
2022-08-21T11:53:55.883Z,100567.16
2022-08-21T11:56:26.817Z,100565.75
2022-08-21T11:58:58.963Z,100564.97
2022-08-21T12:01:29.138Z,100560.59
2022-08-21T12:03:59.950Z,100559.84
2022-08-21T12:07:00.490Z,100550.94
2022-08-21T12:09:35.872Z,100552.59
2022-08-21T12:12:15.517Z,100541.94
2022-08-21T12:14:47.745Z,100542.19
2022-08-21T12:17:23.615Z,100543.84
2022-08-21T12:20:03.032Z,100537.31
2022-08-21T12:22:39.580Z,100546.22
2022-08-21T12:25:13.451Z,100549.84
2022-08-21T12:27:49.284Z,100551.06
2022-08-21T12:30:36.232Z,100545.38
2022-08-21T12:33:08.296Z,100553.75
2022-08-21T12:35:40.732Z,100544.47
2022-08-21T12:38:17.586Z,100532.03
2022-08-21T12:41:06.139Z,100527.53
2022-08-21T12:43:45.233Z,100535.38
2022-08-21T12:46:23.908Z,100521.88
2022-08-21T12:49:01.743Z,100528.53
2022-08-21T12:51:43.000Z,100531.31
2022-08-21T12:54:11.138Z,100529.88
2022-08-21T12:56:41.029Z,100520.19
2022-08-21T12:59:12.730Z,100521.31
2022-08-21T13:01:51.452Z,100515.16
2022-08-21T13:04:35.583Z,100513.53
2022-08-21T13:07:08.603Z,100511.00
2022-08-21T13:09:36.814Z,100514.63
2022-08-21T13:12:09.882Z,100507.53
2022-08-21T13:14:45.407Z,100511.88
2022-08-21T13:17:23.677Z,100523.97
2022-08-21T13:19:55.578Z,100511.31
2022-08-21T13:22:33.599Z,100512.69
2022-08-21T13:25:06.790Z,100519.94
2022-08-21T13:27:35.861Z,100522.75
2022-08-21T13:30:14.633Z,100517.94
2022-08-21T13:32:45.143Z,100520.94
2022-08-21T13:35:20.882Z,100523.25
2022-08-21T13:37:53.076Z,100514.50
2022-08-21T13:40:41.150Z,100519.31
2022-08-21T13:43:34.604Z,100519.34
2022-08-21T13:46:11.301Z,100527.31
2022-08-21T13:48:39.980Z,100532.38
2022-08-21T13:51:10.476Z,100529.97
2022-08-21T13:53:53.705Z,100534.81
2022-08-21T13:56:34.256Z,100526.50
2022-08-21T13:59:06.071Z,100528.66
2022-08-21T14:01:50.345Z,100528.97
2022-08-21T14:04:22.188Z,100538.06
2022-08-21T14:06:50.975Z,100530.19
2022-08-21T14:09:43.492Z,100530.09
2022-08-21T14:12:23.891Z,100523.66
2022-08-21T14:14:52.047Z,100522.13
2022-08-21T14:17:49.526Z,100522.56
2022-08-21T14:20:32.097Z,100518.22
2022-08-21T14:23:02.213Z,100519.81
2022-08-21T14:25:44.225Z,100516.91
2022-08-21T14:28:34.016Z,100513.59
2022-08-21T14:31:35.802Z,100516.25
2022-08-21T14:34:17.316Z,100527.34
2022-08-21T14:36:48.806Z,100526.53
2022-08-21T14:39:16.693Z,100524.38
2022-08-21T14:41:47.067Z,100526.84
2022-08-21T14:44:15.428Z,100530.97
2022-08-21T14:46:55.348Z,100536.44
2022-08-21T14:49:28.574Z,100535.66
2022-08-21T14:51:58.802Z,100524.22
2022-08-21T14:54:31.482Z,100524.97
2022-08-21T14:57:01.813Z,100528.91
2022-08-21T14:59:29.598Z,100522.56
2022-08-21T15:01:57.407Z,100522.59
2022-08-21T15:04:25.047Z,100529.13
2022-08-21T15:06:53.335Z,100519.78
2022-08-21T15:09:21.065Z,100521.25
2022-08-21T15:11:48.849Z,100520.75
2022-08-21T15:14:25.201Z,100526.53
2022-08-21T15:16:53.134Z,100519.53
2022-08-21T15:19:20.801Z,100529.91
2022-08-21T15:21:49.635Z,100529.34
2022-08-21T15:24:17.388Z,100527.38
2022-08-21T15:26:45.278Z,100528.13
2022-08-21T15:29:12.952Z,100520.53
2022-08-21T15:32:04.891Z,100524.78
2022-08-21T15:34:32.537Z,100517.25
2022-08-21T15:37:00.224Z,100527.78
2022-08-21T15:39:31.334Z,100530.47
2022-08-21T15:42:02.821Z,100534.59
2022-08-21T15:44:42.827Z,100535.34
2022-08-21T15:47:18.498Z,100540.09
2022-08-21T15:49:46.575Z,100537.25
2022-08-21T15:52:15.137Z,100541.03
2022-08-21T15:54:43.028Z,100544.00
2022-08-21T15:57:12.294Z,100548.34
2022-08-21T15:59:46.598Z,100551.03
2022-08-21T16:02:20.565Z,100536.06
2022-08-21T16:04:48.319Z,100540.06
2022-08-21T16:07:16.278Z,100547.72
2022-08-21T16:09:43.986Z,100546.63
2022-08-21T16:12:21.000Z,100544.16
2022-08-21T16:14:48.695Z,100545.28
2022-08-21T16:17:16.324Z,100536.13
2022-08-21T16:19:43.974Z,100548.56
2022-08-21T16:22:11.536Z,100540.50
2022-08-21T16:24:39.356Z,100525.75
2022-08-21T16:27:08.468Z,100528.34
2022-08-21T16:29:36.912Z,100533.44
2022-08-21T16:32:04.931Z,100533.16
2022-08-21T16:34:32.706Z,100531.53
2022-08-21T16:37:00.372Z,100540.78
2022-08-21T16:39:28.204Z,100534.94
2022-08-21T16:41:55.949Z,100534.13
2022-08-21T16:44:23.654Z,100532.75
2022-08-21T16:46:51.341Z,100537.19
2022-08-21T16:49:19.368Z,100541.38
2022-08-21T16:51:47.141Z,100541.66
2022-08-21T16:54:15.971Z,100545.84
2022-08-21T16:56:47.536Z,100550.34
2022-08-21T16:59:17.524Z,100550.63
2022-08-21T17:01:45.541Z,100547.00
2022-08-21T17:04:13.434Z,100550.94
2022-08-21T17:06:41.149Z,100544.53
2022-08-21T17:09:08.771Z,100548.16
2022-08-21T17:11:38.874Z,100549.00
2022-08-21T17:14:15.549Z,100551.81
2022-08-21T17:16:46.776Z,100557.66
2022-08-21T17:19:14.959Z,100559.59
2022-08-21T17:21:43.489Z,100556.25
2022-08-21T17:24:13.326Z,100546.19
2022-08-21T17:26:42.022Z,100550.66
2022-08-21T17:29:10.447Z,100553.75
2022-08-21T17:31:39.567Z,100552.59
2022-08-21T17:34:07.302Z,100557.63
2022-08-21T17:36:35.268Z,100556.53
2022-08-21T17:39:03.761Z,100550.94
2022-08-21T17:41:31.404Z,100554.00
2022-08-21T17:43:59.448Z,100546.75
2022-08-21T17:46:30.213Z,100552.59
2022-08-21T17:48:57.832Z,100556.50
2022-08-21T17:51:25.461Z,100553.16
2022-08-21T17:53:53.596Z,100555.38
2022-08-21T17:56:22.081Z,100556.50
2022-08-21T17:58:51.099Z,100554.81
2022-08-21T18:01:19.703Z,100541.94
2022-08-21T18:03:48.050Z,100547.75
2022-08-21T18:06:17.859Z,100541.28
2022-08-21T18:08:46.550Z,100535.69
2022-08-21T18:11:23.409Z,100531.69
2022-08-21T18:13:53.210Z,100529.91
2022-08-21T18:16:22.717Z,100517.66
2022-08-21T18:18:52.381Z,100516.19
2022-08-21T18:21:20.643Z,100514.69
2022-08-21T18:23:49.662Z,100514.97
2022-08-21T18:26:22.118Z,100508.03
2022-08-21T18:28:49.902Z,100500.19
2022-08-21T18:31:17.901Z,100499.63
2022-08-21T18:33:57.653Z,100490.59
2022-08-21T18:36:40.248Z,100495.84
2022-08-21T18:39:34.797Z,100490.19
2022-08-21T18:41:56.784Z,100481.34
2022-08-21T18:44:25.159Z,100489.44
2022-08-21T18:46:56.064Z,100479.84
2022-08-21T18:49:23.676Z,100487.81
2022-08-21T18:51:52.173Z,100479.44
2022-08-21T18:54:19.917Z,100478.59
2022-08-21T18:56:47.661Z,100475.25
2022-08-21T18:59:15.381Z,100480.28
2022-08-21T19:01:43.825Z,100480.91
2022-08-21T19:04:40.962Z,100476.50
2022-08-21T19:07:05.416Z,100478.72
2022-08-21T19:09:33.909Z,100471.75
2022-08-21T19:12:04.581Z,100475.38
2022-08-21T19:14:34.754Z,100477.66
2022-08-21T19:17:05.870Z,100473.78
2022-08-21T19:19:34.564Z,100474.31
2022-08-21T19:22:03.421Z,100471.44
2022-08-21T19:24:31.629Z,100473.94
2022-08-21T19:27:00.976Z,100463.88
2022-08-21T19:29:35.037Z,100475.72
2022-08-21T19:32:04.829Z,100467.88
2022-08-21T19:34:32.654Z,100472.13
2022-08-21T19:37:00.629Z,100479.88
2022-08-21T19:39:28.236Z,100479.66
2022-08-21T19:41:59.102Z,100476.94
2022-08-21T19:44:28.506Z,100473.50
2022-08-21T19:46:58.890Z,100467.53
2022-08-21T19:49:33.294Z,100461.38
2022-08-21T19:52:02.387Z,100459.34
2022-08-21T19:54:40.922Z,100457.06
2022-08-21T19:57:10.431Z,100445.25
2022-08-21T19:59:38.883Z,100454.50
2022-08-21T20:02:07.365Z,100451.41
2022-08-21T20:04:35.384Z,100455.28
2022-08-21T20:07:04.589Z,100453.59
2022-08-21T20:09:37.704Z,100447.16
2022-08-21T20:12:10.581Z,100449.59
2022-08-21T20:14:45.314Z,100435.84
2022-08-21T20:17:14.733Z,100436.13
2022-08-21T20:19:44.790Z,100438.59
2022-08-21T20:22:13.069Z,100427.94
2022-08-21T20:24:42.626Z,100431.22
2022-08-21T20:27:12.835Z,100430.50
2022-08-21T20:29:41.806Z,100426.84
2022-08-21T20:32:12.248Z,100432.50
2022-08-21T20:34:41.873Z,100428.13
2022-08-21T20:37:13.508Z,100428.84
2022-08-21T20:39:50.269Z,100432.72
2022-08-21T20:42:19.349Z,100430.28
2022-08-21T20:44:48.215Z,100422.00
2022-08-21T20:47:16.269Z,100419.28
2022-08-21T20:49:48.960Z,100426.84
2022-08-21T20:52:20.386Z,100430.72
2022-08-21T20:54:56.209Z,100428.16
2022-08-21T20:57:39.209Z,100428.00
2022-08-21T21:00:17.785Z,100433.38
2022-08-21T21:03:18.392Z,100435.38
2022-08-21T21:06:06.281Z,100431.34
2022-08-21T21:08:52.390Z,100436.03
2022-08-21T21:11:44.294Z,100432.50
2022-08-21T21:14:23.537Z,100434.84
2022-08-21T21:16:59.434Z,100432.50
2022-08-21T21:22:32.216Z,100433.50
2022-08-21T21:25:17.121Z,100431.66
2022-08-21T21:27:49.093Z,100428.16
2022-08-21T21:30:25.096Z,100441.56
2022-08-21T21:32:53.703Z,100440.41
2022-08-21T21:38:53.710Z,100443.84
2022-08-21T21:41:44.811Z,100442.75
2022-08-21T21:44:28.178Z,100441.25
2022-08-21T21:47:18.504Z,100431.19
2022-08-21T21:50:23.912Z,100436.41
2022-08-21T21:53:26.721Z,100434.22
2022-08-21T21:59:39.723Z,100440.09
2022-08-21T22:02:25.155Z,100444.59
2022-08-21T22:05:06.829Z,100442.50
2022-08-21T22:07:47.192Z,100444.78
2022-08-21T22:10:42.905Z,100447.13
2022-08-21T22:13:26.445Z,100444.72
2022-08-21T22:15:57.688Z,100439.66
2022-08-21T22:18:45.165Z,100434.91
2022-08-21T22:21:25.073Z,100431.13
2022-08-21T22:23:56.093Z,100427.78
2022-08-21T22:26:28.500Z,100432.38
2022-08-21T22:28:56.165Z,100431.78
2022-08-21T22:31:26.557Z,100433.38
2022-08-21T22:34:18.077Z,100439.16
2022-08-21T22:36:59.865Z,100438.41
2022-08-21T22:39:38.642Z,100451.16
2022-08-21T22:42:10.871Z,100448.81
2022-08-21T22:44:59.939Z,100460.91
2022-08-21T22:47:41.589Z,100460.47
2022-08-21T22:50:24.398Z,100458.75
2022-08-21T22:53:00.655Z,100467.94
2022-08-21T22:55:43.958Z,100474.41
2022-08-21T22:58:29.685Z,100483.06
2022-08-21T23:01:02.718Z,100481.22
2022-08-21T23:03:50.149Z,100471.03
2022-08-21T23:06:43.018Z,100487.16
2022-08-21T23:09:22.872Z,100473.06
2022-08-21T23:11:51.024Z,100474.72
2022-08-21T23:14:19.121Z,100475.06
2022-08-21T23:17:16.437Z,100478.19
2022-08-21T23:19:51.520Z,100487.91
2022-08-21T23:22:22.157Z,100482.59
2022-08-21T23:25:12.151Z,100484.03
2022-08-21T23:28:19.816Z,100483.44
2022-08-21T23:30:59.666Z,100490.91
2022-08-21T23:33:39.946Z,100486.47
2022-08-21T23:36:39.333Z,100493.09
2022-08-21T23:39:28.414Z,100486.13
2022-08-21T23:42:07.352Z,100485.56
2022-08-21T23:44:47.243Z,100484.44
2022-08-21T23:47:32.254Z,100488.91
2022-08-21T23:50:21.794Z,100501.91
2022-08-21T23:52:55.029Z,100500.84
2022-08-21T23:55:53.328Z,100500.22
2022-08-21T23:58:48.109Z,100493.25
